Flight Track Log - Related Links

Times and Time Zones

All times are in EDT time to prevent confusion due to time zone crossing. See the SWA624 flight status page for this flight to view local times or setup timezone preferences in your user account.

Time Position Orientation Groundspeed Altitude Reporting Facility
EDT Latitude Longitude Course Direction KTS MPH feet Rate Location/Type
Sun 07:27:07 PM 39.1833 -76.7333 288° West 183 211 2,300  Level Potomac TRACON
Sun 07:28:07 PM 39.1833 -76.8167 270° West 237 273 5,100 3,250 Climbing Potomac TRACON
Sun 07:29:07 PM 39.2000 -76.9000 284° West 261 300 8,800 3,250 Climbing Potomac TRACON
Sun 07:30:07 PM 39.2167 -77.0000 282° West 283 326 11,600 3,000 Climbing Potomac TRACON
Sun 07:31:07 PM 39.2167 -77.1000 270° West 292 336 14,800 2,133 Climbing Potomac TRACON
Sun 07:32:00 PM 39.3927 -77.3873 288° West  Level FlightAware Approximate
Sun 07:33:38 PM 39.3319 -77.3464 301° West 334 384 19,100  Level Washington Center
Sun 07:34:38 PM 39.3844 -77.4578 301° West 355 409 21,100 1,780 Climbing Washington Center
Sun 07:35:36 PM 39.4472 -77.5775 304° West 378 435 22,600 1,916 Climbing Washington Center
Sun 07:36:37 PM 39.4931 -77.7053 295° West 392 451 24,900 1,820 Climbing Washington Center
Sun 07:37:38 PM 39.5322 -77.8408 291° West 392 451 26,300 1,462 Climbing Washington Center
Sun 07:38:36 PM 39.5792 -78.0014 291° West 413 475 27,800 1,403 Climbing Washington Center
Sun 07:40:12 PM 39.6511 -78.2400 291° West 438 504 29,900 1,385 Climbing Cleveland Center
Sun 07:41:12 PM 39.6958 -78.3922 291° West 448 516 31,400 1,650 Climbing Cleveland Center
Sun 07:42:12 PM 39.7425 -78.5475 291° West 448 516 33,200 1,500 Climbing Cleveland Center
Sun 07:43:12 PM 39.7822 -78.6786 292° West 448 516 34,400 1,400 Climbing Cleveland Center
Sun 07:44:12 PM 39.8681 -78.8278 307° West 448 516 36,000 1,350 Climbing Cleveland Center
Sun 07:45:12 PM 39.9472 -78.9583 308° West 454 522 37,100 950 Climbing Cleveland Center
Sun 07:46:12 PM 40.0197 -79.0758 309° West 462 532 37,900 446 Climbing Cleveland Center
Sun 07:47:13 PM 40.1028 -79.2286 305° West 467 537 38,000 50 Climbing Cleveland Center
Sun 07:48:12 PM 40.1792 -79.3467 310° West 473 544 38,000  Level Cleveland Center
Sun 07:49:12 PM 40.2578 -79.4814 307° West 478 550 38,000  Level Cleveland Center
Sun 07:50:12 PM 40.3361 -79.6189 307° West 478 550 38,000  Level Cleveland Center
Sun 07:51:12 PM 40.4144 -79.7542 307° West 473 544 38,000  Level Cleveland Center
Sun 07:52:12 PM 40.4944 -79.8897 308° West 473 544 38,000  Level Cleveland Center
Sun 07:53:12 PM 40.5808 -80.0500 305° West 478 550 38,000  Level Cleveland Center
Sun 07:54:12 PM 40.6586 -80.1917 306° West 478 550 38,000  Level Cleveland Center
Sun 07:55:12 PM 40.7361 -80.3256 307° West 478 550 38,000  Level Cleveland Center
Sun 07:56:12 PM 40.8156 -80.4625 307° West 466 536 38,000  Level Cleveland Center
Sun 07:57:12 PM 40.8947 -80.5969 308° West 466 536 38,000  Level Cleveland Center
Sun 07:58:12 PM 40.9717 -80.7372 306° West 466 536 38,000  Level Cleveland Center
Sun 07:59:12 PM 41.0486 -80.8750 307° West 466 536 38,000  Level Cleveland Center
Sun 08:00:12 PM 41.1253 -81.0131 306° West 466 536 38,000  Level Cleveland Center
Sun 08:01:12 PM 41.1914 -81.1406 305° West 472 543 38,000  Level Cleveland Center
Sun 08:02:12 PM 41.2700 -81.2819 307° West 478 550 38,000  Level Cleveland Center
Sun 08:03:12 PM 41.3564 -81.4378 306° West 478 550 38,000  Level Cleveland Center
Sun 08:04:12 PM 41.4283 -81.5608 308° West 478 550 38,000  Level Cleveland Center
Sun 08:05:12 PM 41.5042 -81.7089 304° West 488 562 38,000  Level Cleveland Center
Sun 08:06:12 PM 41.5778 -81.8517 305° West 482 555 38,000  Level Cleveland Center
Sun 08:07:12 PM 41.6531 -81.9922 306° West 469 540 38,000  Level Cleveland Center
Sun 08:08:12 PM 41.7244 -82.1272 305° West 464 534 38,000  Level Cleveland Center
Sun 08:09:12 PM 41.7994 -82.2711 305° West 464 534 38,000  Level Cleveland Center
Sun 08:10:12 PM 41.8744 -82.4097 306° West 464 534 38,000  Level Cleveland Center
Sun 08:11:12 PM 41.9492 -82.5514 305° West 464 534 38,000  Level Cleveland Center
Sun 08:12:12 PM 42.0239 -82.6936 305° West 464 534 38,000  Level Cleveland Center
Sun 08:13:12 PM 42.0964 -82.8358 305° West 470 541 38,000  Level Cleveland Center
Sun 08:14:12 PM 42.1686 -82.9756 305° West 470 541 38,000  Level Cleveland Center
Sun 08:15:12 PM 42.2428 -83.1131 306° West 465 535 38,000  Level Cleveland Center
Sun 08:16:12 PM 42.3225 -83.2736 304° West 465 535 38,000  Level Cleveland Center
Sun 08:17:12 PM 42.3919 -83.4117 304° West 460 529 38,000  Level Cleveland Center
Sun 08:18:12 PM 42.4658 -83.5500 306° West 455 524 38,000  Level Cleveland Center
Sun 08:19:12 PM 42.5331 -83.6856 304° West 455 524 38,000  Level Cleveland Center
Sun 08:20:12 PM 42.6022 -83.8244 304° West 445 512 38,000  Level Cleveland Center
Sun 08:21:12 PM 42.6731 -83.9636 305° West 445 512 38,000  Level Cleveland Center
Sun 08:22:12 PM 42.7314 -84.1083 299° West 445 512 38,000  Level Cleveland Center
Sun 08:24:42 PM 42.8233 -84.5025 288° West 446 513 38,000  Level Chicago Center
Sun 08:25:44 PM 42.8608 -84.6617 288° West 444 511 38,000  Level Chicago Center
Sun 08:26:46 PM 42.8969 -84.8203 287° West 441 507 38,000  Level Chicago Center
Sun 08:27:48 PM 42.9331 -84.9792 287° West 440 506 38,000  Level Chicago Center
Sun 08:28:50 PM 42.9692 -85.1358 288° West 437 503 38,000 -726 Level Chicago Center
Sun 08:29:52 PM 43.0039 -85.2878 287° West 425 489 36,500 -1,500 Descending Chicago Center
Sun 08:30:54 PM 43.0442 -85.4694 287° West 418 481 34,900 -1,452 Descending Chicago Center
Sun 08:31:56 PM 43.0783 -85.6214 287° West 422 486 33,500 -1,258 Descending Chicago Center
Sun 08:32:58 PM 43.1142 -85.7789 287° West 436 502 32,300 -1,790 Descending Chicago Center
Sun 08:34:00 PM 43.1286 -85.9478 277° West 458 527 29,800 -3,435 Descending Chicago Center
Sun 08:35:02 PM 43.1328 -86.1536 272° West 468 539 25,200 -3,532 Descending Chicago Center
Sun 08:36:04 PM 43.1361 -86.3219 272° West 447 514 22,500 -2,371 Descending Chicago Center
Sun 08:37:06 PM 43.1406 -86.4864 272° West 435 501 20,300 -2,032 Descending Chicago Center
Sun 08:38:08 PM 43.1436 -86.6381 272° West 405 466 18,300 -1,887 Descending Chicago Center
Sun 08:39:10 PM 43.1469 -86.7831 272° West 385 443 16,400 -2,081 Descending Chicago Center
Sun 08:40:12 PM 43.1506 -86.9500 272° West 369 425 14,000 -1,984 Descending Chicago Center
Sun 08:41:14 PM 43.1422 -87.0758 265° West 336 387 12,300 -1,935 Descending Chicago Center
Sun 08:42:16 PM 43.1125 -87.2028 252° West 352 405 10,000 -1,403 Descending Chicago Center
Sun 08:43:18 PM 43.0856 -87.3142 252° West 314 361 9,400 -1,113 Descending Chicago Center
Sun 08:44:20 PM 43.0564 -87.4292 251° West 283 326 7,700 -1,645 Descending Chicago Center
Sun 08:45:22 PM 43.0328 -87.5275 252° West 274 315 6,000 -1,597 Descending Chicago Center
Sun 08:46:24 PM 43.0092 -87.6242 252° West 269 310 4,400 -1,210 Descending Chicago Center
Sun 08:47:26 PM 42.9875 -87.7122 251° West 252 290 3,500 -1,016 Descending Chicago Center
Sun 08:48:28 PM 42.9722 -87.7806 253° West 204 235 2,300 -1,016 Descending Chicago Center
Sun 08:49:30 PM 42.9558 -87.8433 250° West 170 196 1,400 -581 Descending Chicago Center
Sun 08:50:32 PM 42.9444 -87.8908 252° West 154 177 1,100 -290 Descending Chicago Center
Sun 08:52:00 PM 42.9333 -87.8833 236° Southwest  Level FlightAware Approximate

Login

Don't have an account? Register now (free) for customized features, flight alerts, and more!